Time;durP1;ratioP1;P1;durP2;ratioP2;P2;SDS_P1;SDS_P2;PMS_P1;PMS_P2;Temp;Humidity;BMP_temperature;BMP_pressure;BME280_temperature;BME280_humidity;BME280_pressure;Samples;Min_cycle;Max_cycle;Signal;HPM_P1;HPM_P2
2022/10/27 00:00:33;;;;;;;35.23;21.60;;;;;;;10.52;96.25;99872.47;1716781;82;21035;-44
2022/10/27 00:03:00;;;;;;;38.50;21.37;;;;;;;10.52;95.84;99873.78;1724037;81;21028;-46
2022/10/27 00:05:27;;;;;;;36.05;21.42;;;;;;;10.51;95.63;99870.75;1725474;81;21023;-44
2022/10/27 00:07:54;;;;;;;34.65;23.18;;;;;;;10.49;95.58;99876.55;1730984;81;21071;-42
2022/10/27 00:10:21;;;;;;;38.13;23.35;;;;;;;10.46;95.84;99881.93;1717107;82;21109;-45
2022/10/27 00:12:48;;;;;;;41.92;23.10;;;;;;;10.45;95.74;99883.72;1723590;81;21020;-44
2022/10/27 00:15:15;;;;;;;41.73;23.60;;;;;;;10.43;95.77;99882.94;1716889;82;21464;-46
2022/10/27 00:17:42;;;;;;;39.95;25.45;;;;;;;10.42;96.58;99877.27;1721530;82;21070;-46
2022/10/27 00:20:10;;;;;;;39.10;23.93;;;;;;;10.41;96.72;99876.90;1727958;81;21141;-46
2022/10/27 00:22:36;;;;;;;37.45;22.42;;;;;;;10.42;96.71;99880.38;1723560;81;21537;-47
2022/10/27 00:25:04;;;;;;;39.37;25.03;;;;;;;10.42;96.05;99880.38;1721434;81;21030;-46
2022/10/27 00:27:31;;;;;;;34.85;23.12;;;;;;;10.38;96.87;99883.60;1720305;81;20987;-46
2022/10/27 00:29:58;;;;;;;40.60;25.23;;;;;;;10.38;96.86;99889.70;1731333;81;21053;-46
2022/10/27 00:32:25;;;;;;;37.25;24.25;;;;;;;10.35;96.37;99891.17;1721192;82;21066;-45
2022/10/27 00:34:51;;;;;;;40.83;24.02;;;;;;;10.35;96.83;99885.92;1717587;81;21015;-44
2022/10/27 00:37:18;;;;;;;36.47;22.60;;;;;;;10.35;96.73;99889.86;1719261;81;21496;-43
2022/10/27 00:39:45;;;;;;;37.33;23.50;;;;;;;10.35;96.27;99888.55;1730765;81;21014;-44
2022/10/27 00:42:13;;;;;;;38.63;24.37;;;;;;;10.36;96.43;99890.70;1724590;81;21086;-44
2022/10/27 00:44:43;;;;;;;38.75;24.07;;;;;;;10.36;96.18;99895.50;1732965;82;21107;-44
2022/10/27 00:47:26;;;;;;;38.28;22.65;;;;;;;10.37;96.27;99896.38;1718394;82;21026;-44
2022/10/27 00:50:01;;;;;;;37.40;23.18;;;;;;;10.35;96.34;99897.75;1726063;81;21171;-45
2022/10/27 00:52:42;;;;;;;35.40;22.30;;;;;;;10.35;96.67;99896.88;1724456;81;20991;-44
2022/10/27 00:55:17;;;;;;;42.58;24.23;;;;;;;10.35;96.82;99898.19;1720458;81;21105;-45
2022/10/27 00:57:48;;;;;;;36.03;23.38;;;;;;;10.37;96.79;99895.90;1715140;82;21496;-44
2022/10/27 01:00:16;;;;;;;43.30;24.65;;;;;;;10.37;96.93;99892.43;1726838;81;21027;-42
2022/10/27 01:02:43;;;;;;;38.23;23.10;;;;;;;10.41;96.65;99895.77;1725384;81;21079;-42
2022/10/27 01:05:24;;;;;;;39.63;23.40;;;;;;;10.40;96.54;99896.21;1713578;81;21758;-42
2022/10/27 01:07:55;;;;;;;35.50;22.93;;;;;;;10.41;96.98;99886.57;1718761;81;21022;-45
2022/10/27 01:10:22;;;;;;;40.00;23.98;;;;;;;10.41;97.32;99897.09;1716844;82;21633;-45
2022/10/27 01:12:49;;;;;;;41.45;24.57;;;;;;;10.43;96.74;99894.77;1713315;81;21099;-46
2022/10/27 01:15:16;;;;;;;38.08;25.50;;;;;;;10.41;97.07;99889.20;1714644;82;21586;-45
2022/10/27 01:18:07;;;;;;;46.20;27.77;;;;;;;10.42;97.03;99896.15;1718321;81;21066;-46
2022/10/27 01:21:06;;;;;;;42.55;27.00;;;;;;;10.39;97.46;99895.84;1719636;81;21591;-45
2022/10/27 01:24:14;;;;;;;47.78;27.67;;;;;;;10.41;97.14;99895.77;1664173;85;21027;-45
2022/10/27 01:26:55;;;;;;;46.42;29.05;;;;;;;10.37;97.39;99901.16;1668120;84;21067;-45
2022/10/27 01:30:07;;;;;;;43.40;28.55;;;;;;;10.37;97.14;99898.53;1665259;84;21043;-44
2022/10/27 01:32:57;;;;;;;39.73;27.15;;;;;;;10.35;97.13;99905.64;1666523;83;21046;-45
2022/10/27 01:35:36;;;;;;;42.35;28.02;;;;;;;10.32;97.20;99899.66;1653312;84;21031;-45
2022/10/27 01:38:14;;;;;;;46.58;26.52;;;;;;;10.30;97.37;99904.11;1662694;84;21052;-44
2022/10/27 01:40:45;;;;;;;38.70;26.37;;;;;;;10.27;97.31;99898.50;1665006;84;21084;-44
2022/10/27 01:43:20;;;;;;;45.52;25.52;;;;;;;10.27;96.91;99907.70;1673965;83;21050;-44
2022/10/27 01:45:49;;;;;;;42.27;26.23;;;;;;;10.24;96.75;99899.98;1666157;84;21161;-46
2022/10/27 01:48:17;;;;;;;42.67;25.50;;;;;;;10.21;96.86;99900.10;1666776;83;21104;-47
2022/10/27 01:50:43;;;;;;;44.05;24.15;;;;;;;10.18;97.53;99902.38;1673369;84;21039;-46
2022/10/27 01:53:11;;;;;;;41.87;24.57;;;;;;;10.15;97.67;99905.61;1667860;83;21549;-46
2022/10/27 01:56:26;;;;;;;38.15;23.47;;;;;;;10.13;97.43;99903.52;1656520;85;21059;-44
2022/10/27 01:59:16;;;;;;;38.58;23.18;;;;;;;10.11;97.20;99904.89;1691340;82;21061;-45
2022/10/27 02:01:57;;;;;;;33.63;21.30;;;;;;;10.09;97.50;99900.63;1728002;82;21098;-45
2022/10/27 02:05:07;;;;;;;28.70;19.92;;;;;;;10.08;97.95;99905.52;1721820;82;20998;-46
2022/10/27 02:08:02;;;;;;;33.92;20.08;;;;;;;10.05;98.18;99901.22;1722751;82;21003;-44
2022/10/27 02:10:40;;;;;;;29.27;19.77;;;;;;;10.03;98.05;99904.85;1723659;82;21077;-44
2022/10/27 02:13:08;;;;;;;30.37;19.90;;;;;;;10.01;97.69;99903.59;1721885;82;21050;-45
2022/10/27 02:15:43;;;;;;;33.90;19.55;;;;;;;9.99;97.70;99906.76;1717984;82;21028;-46
2022/10/27 02:18:16;;;;;;;33.00;19.48;;;;;;;9.94;98.15;99913.51;1723537;82;21000;-44
2022/10/27 02:20:47;;;;;;;35.20;19.80;;;;;;;9.93;98.08;99909.19;1724921;82;21199;-44
2022/10/27 02:23:17;;;;;;;29.82;19.17;;;;;;;9.92;98.39;99910.56;1727324;82;21034;-44
2022/10/27 02:26:07;;;;;;;27.22;18.42;;;;;;;9.92;97.93;99909.25;1731460;82;21033;-44
2022/10/27 02:28:59;;;;;;;30.72;18.40;;;;;;;9.90;97.99;99911.94;1726412;82;21003;-44
2022/10/27 02:31:31;;;;;;;35.48;19.25;;;;;;;9.90;97.88;99909.78;1723562;82;21030;-45
2022/10/27 02:33:59;;;;;;;27.95;17.77;;;;;;;9.84;97.62;99912.65;1722679;82;21010;-46
2022/10/27 02:36:26;;;;;;;30.00;18.75;;;;;;;9.84;97.80;99916.16;1721783;82;21022;-46
2022/10/27 02:38:53;;;;;;;30.68;19.25;;;;;;;9.82;98.03;99916.65;1724728;82;21002;-45
2022/10/27 02:41:19;;;;;;;35.33;19.83;;;;;;;9.83;97.65;99918.84;1750486;76;21113;-44
2022/10/27 02:43:46;;;;;;;41.68;20.10;;;;;;;9.80;97.61;99919.37;1789161;79;21069;-43
2022/10/27 02:46:13;;;;;;;37.67;20.30;;;;;;;9.78;98.35;99921.64;1792926;79;21499;-46
2022/10/27 02:48:39;;;;;;;35.03;21.50;;;;;;;9.79;98.17;99920.73;1792529;79;21422;-46
2022/10/27 02:51:07;;;;;;;35.03;20.95;;;;;;;9.78;98.30;99920.33;1794613;79;21161;-45
2022/10/27 02:53:34;;;;;;;32.83;19.50;;;;;;;9.79;98.35;99922.05;1789136;79;21001;-44
2022/10/27 02:56:00;;;;;;;30.97;19.83;;;;;;;9.77;98.23;99917.33;1790034;79;21042;-46
2022/10/27 02:58:27;;;;;;;28.40;19.73;;;;;;;9.76;98.13;99910.35;1788365;80;21010;-46
2022/10/27 03:00:55;;;;;;;37.00;19.30;;;;;;;9.77;98.05;99912.08;1793486;79;20997;-44
2022/10/27 03:03:23;;;;;;;31.65;19.67;;;;;;;9.75;98.16;99906.00;1790102;79;21069;-46
2022/10/27 03:05:50;;;;;;;29.35;19.42;;;;;;;9.71;98.40;99909.69;1791370;79;21002;-44
2022/10/27 03:08:17;;;;;;;30.30;19.32;;;;;;;9.72;98.22;99915.34;1787366;80;20983;-45
2022/10/27 03:10:44;;;;;;;36.30;19.95;;;;;;;9.69;98.45;99908.90;1719829;82;21150;-44
2022/10/27 03:13:11;;;;;;;28.95;18.30;;;;;;;9.68;98.44;99912.43;1720687;82;21534;-45
2022/10/27 03:15:38;;;;;;;30.75;18.90;;;;;;;9.68;98.56;99921.19;1735647;81;20990;-45
2022/10/27 03:18:05;;;;;;;34.27;19.73;;;;;;;9.69;98.60;99922.03;1740546;81;21634;-46
2022/10/27 03:20:32;;;;;;;29.60;19.12;;;;;;;9.68;98.65;99920.31;1758277;81;21051;-46
2022/10/27 03:22:58;;;;;;;28.23;18.13;;;;;;;9.67;98.57;99926.03;1789495;80;20982;-46
2022/10/27 03:25:25;;;;;;;27.70;17.97;;;;;;;9.67;98.53;99924.72;1788658;79;21245;-44
2022/10/27 03:27:52;;;;;;;33.00;18.33;;;;;;;9.68;98.38;99925.56;1791220;79;21005;-44
2022/10/27 03:30:19;;;;;;;28.80;18.13;;;;;;;9.64;98.38;99914.80;1792012;79;21937;-46
2022/10/27 03:32:49;;;;;;;33.02;18.40;;;;;;;9.65;98.25;99913.89;1717625;82;21042;-43
2022/10/27 03:35:17;;;;;;;34.35;17.15;;;;;;;9.65;98.30;99927.02;1729382;81;21034;-45
2022/10/27 03:37:45;;;;;;;26.40;17.77;;;;;;;9.63;98.31;99926.23;1738388;81;21468;-46
2022/10/27 03:40:12;;;;;;;25.45;17.45;;;;;;;9.63;98.30;99926.23;1714707;81;21057;-45
2022/10/27 03:42:42;;;;;;;29.87;17.60;;;;;;;9.59;98.59;99930.29;1723365;82;21578;-43
2022/10/27 03:45:10;;;;;;;27.42;17.60;;;;;;;9.57;98.81;99936.53;1732714;81;21011;-44
2022/10/27 03:47:37;;;;;;;32.13;18.30;;;;;;;9.57;98.63;99940.00;1742779;81;21003;-43
2022/10/27 03:50:05;;;;;;;36.85;18.20;;;;;;;9.58;98.42;99937.76;1726810;81;20995;-43
2022/10/27 03:52:33;;;;;;;31.60;17.35;;;;;;;9.58;98.51;99939.54;1731205;82;21014;-44
2022/10/27 03:54:59;;;;;;;;;;;;;;;9.58;98.60;99944.79;1701624;82;20994;-45
2022/10/27 03:57:26;;;;;;;29.95;18.32;;;;;;;9.56;98.51;99942.22;1753489;81;20150;-44
2022/10/27 03:59:53;;;;;;;34.53;18.17;;;;;;;9.56;98.49;99940.91;1759259;81;20995;-45
2022/10/27 04:02:20;;;;;;;30.67;18.70;;;;;;;9.54;98.37;99946.69;1760232;81;21009;-46
2022/10/27 04:04:46;;;;;;;39.10;20.50;;;;;;;9.52;98.56;99949.84;1761802;81;21993;-43
2022/10/27 04:07:13;;;;;;;33.00;18.77;;;;;;;9.53;98.79;99943.69;1757166;81;21533;-44
2022/10/27 04:09:40;;;;;;;34.03;18.57;;;;;;;9.55;99.00;99947.53;1759322;81;21010;-45
2022/10/27 04:12:07;;;;;;;29.60;18.07;;;;;;;9.54;98.69;99953.72;1759894;81;21589;-45
2022/10/27 04:14:33;;;;;;;35.25;18.40;;;;;;;9.50;98.81;99949.05;1752221;81;21495;-45
2022/10/27 04:17:00;;;;;;;35.73;17.57;;;;;;;9.50;98.85;99949.52;1755360;81;21013;-46
2022/10/27 04:19:27;;;;;;;35.50;16.90;;;;;;;9.49;99.03;99952.58;1756043;81;21049;-44
2022/10/27 04:21:54;;;;;;;33.07;17.57;;;;;;;9.50;98.88;99956.92;1759755;81;21531;-45
2022/10/27 04:24:20;;;;;;;28.32;15.78;;;;;;;9.49;98.44;99964.39;1761735;81;21085;-43
2022/10/27 04:26:47;;;;;;;26.47;17.37;;;;;;;9.47;98.87;99954.41;1754794;81;21010;-46
2022/10/27 04:29:14;;;;;;;29.20;17.73;;;;;;;9.46;99.19;99957.09;1755921;80;20986;-43
2022/10/27 04:31:41;;;;;;;33.03;18.97;;;;;;;9.48;98.98;99956.14;1760814;81;21062;-46
2022/10/27 04:34:08;;;;;;;35.13;20.35;;;;;;;9.48;98.99;99953.94;1748228;81;21120;-45
2022/10/27 04:36:35;;;;;;;32.00;18.37;;;;;;;9.44;99.31;99959.81;1756433;81;21089;-46
2022/10/27 04:39:01;;;;;;;31.67;16.93;;;;;;;9.44;98.94;99953.67;1759898;81;21523;-46
2022/10/27 04:41:30;;;;;;;29.73;16.77;;;;;;;9.42;99.02;99956.36;1754602;81;21060;-46
2022/10/27 04:43:56;;;;;;;25.57;16.62;;;;;;;9.42;98.70;99953.73;1754341;81;21018;-45
2022/10/27 04:46:23;;;;;;;28.13;16.53;;;;;;;9.43;98.60;99964.64;1757810;81;21017;-44
2022/10/27 04:48:50;;;;;;;25.10;16.83;;;;;;;9.45;98.53;99960.66;1758287;81;21530;-45
2022/10/27 04:51:17;;;;;;;25.32;16.35;;;;;;;9.45;98.26;99964.59;1757261;81;20981;-44
2022/10/27 04:53:43;;;;;;;34.33;16.47;;;;;;;9.43;98.46;99970.36;1756713;81;21011;-44
2022/10/27 04:56:10;;;;;;;27.33;16.00;;;;;;;9.41;98.41;99973.89;1751120;81;21046;-43
2022/10/27 04:58:37;;;;;;;23.20;14.53;;;;;;;9.40;98.30;99976.14;1761328;81;20986;-45
2022/10/27 05:01:12;;;;;;;27.67;15.73;;;;;;;9.40;98.18;99977.88;1760835;81;21455;-44
2022/10/27 05:03:39;;;;;;;27.07;16.00;;;;;;;9.40;98.15;99977.45;1757327;81;20994;-47
2022/10/27 05:06:06;;;;;;;26.60;15.63;;;;;;;9.40;98.09;99984.45;1759756;81;21551;-47
2022/10/27 05:08:33;;;;;;;;;;;;;;;9.38;98.08;99983.19;1759200;81;21487;-44
2022/10/27 05:11:00;;;;;;;26.35;14.80;;;;;;;9.37;97.91;99984.59;1756720;81;20442;-44
2022/10/27 05:13:26;;;;;;;28.83;14.98;;;;;;;9.37;98.01;99988.52;1752880;81;21018;-45
2022/10/27 05:16:02;;;;;;;35.47;16.90;;;;;;;9.38;97.83;99981.03;1759948;81;21001;-45
2022/10/27 05:18:29;;;;;;;33.20;17.37;;;;;;;9.36;97.78;99981.09;1750711;81;20976;-44
2022/10/27 05:20:56;;;;;;;28.57;16.77;;;;;;;9.37;97.72;99976.72;1737742;81;21025;-45
2022/10/27 05:23:23;;;;;;;29.55;16.75;;;;;;;9.35;97.83;99987.27;1740940;81;21089;-43
2022/10/27 05:25:53;;;;;;;31.95;16.95;;;;;;;9.32;97.92;99993.94;1733837;81;21014;-44
2022/10/27 05:28:21;;;;;;;26.80;15.90;;;;;;;9.30;97.76;99990.52;1743892;81;21017;-45
2022/10/27 05:30:47;;;;;;;;;;;;;;;9.28;97.89;99993.67;1741974;81;21478;-45
2022/10/27 05:33:15;;;;;;;35.68;17.95;;;;;;;9.27;98.06;99997.66;1728016;81;20510;-47
2022/10/27 05:35:44;;;;;;;36.30;18.77;;;;;;;9.25;98.44;99992.47;1733776;81;21023;-46
2022/10/27 05:38:10;;;;;;;47.27;18.87;;;;;;;9.23;98.27;99993.83;1746148;81;21094;-47
2022/10/27 05:40:37;;;;;;;44.58;20.52;;;;;;;9.25;98.15;99996.88;1723644;82;21468;-46
2022/10/27 05:43:04;;;;;;;36.37;20.57;;;;;;;9.25;97.98;99988.53;1731320;82;21021;-46
2022/10/27 05:45:31;;;;;;;33.33;19.07;;;;;;;9.26;98.15;99992.00;1723885;81;21578;-44
2022/10/27 05:48:05;;;;;;;40.83;21.50;;;;;;;9.26;98.09;99993.31;1720815;82;21023;-47
2022/10/27 05:50:33;;;;;;;41.60;19.87;;;;;;;9.26;97.95;99992.87;1719511;82;21580;-46
2022/10/27 05:53:00;;;;;;;37.93;19.15;;;;;;;9.27;98.12;100009.47;1717809;82;21016;-47
2022/10/27 05:55:27;;;;;;;29.75;18.20;;;;;;;9.25;97.95;100008.21;1792776;79;21120;-47
2022/10/27 05:58:01;;;;;;;36.23;17.90;;;;;;;9.27;98.06;100016.03;1791595;79;21088;-45
2022/10/27 06:00:33;;;;;;;29.27;17.23;;;;;;;9.26;98.20;100017.81;1790567;79;20998;-44
2022/10/27 06:03:01;;;;;;;40.33;19.80;;;;;;;9.27;98.21;100022.59;1793190;79;21006;-43
2022/10/27 06:05:30;;;;;;;31.73;17.73;;;;;;;9.28;98.24;100026.48;1789922;80;21008;-44
2022/10/27 06:07:58;;;;;;;38.80;19.10;;;;;;;9.29;98.37;100028.64;1793116;79;21037;-45
2022/10/27 06:10:24;;;;;;;;;;;;;;;9.29;98.24;100022.92;1795206;79;21050;-48
2022/10/27 06:12:51;;;;;;;50.20;20.20;;;;;;;9.29;98.38;100027.33;1790878;79;20168;-46
2022/10/27 06:15:18;;;;;;;32.42;17.80;;;;;;;9.27;98.69;100026.53;1793870;79;21670;-46
2022/10/27 06:17:44;;;;;;;40.08;20.02;;;;;;;9.23;98.69;100024.02;1791245;80;21478;-46
2022/10/27 06:20:11;;;;;;;43.70;19.33;;;;;;;9.32;98.51;100035.09;1791802;80;20982;-44
2022/10/27 06:22:38;;;;;;;33.77;18.37;;;;;;;9.36;98.34;100043.23;1724848;81;21049;-44
2022/10/27 06:25:05;;;;;;;32.50;17.90;;;;;;;9.39;98.07;100043.13;1733891;81;20990;-47
2022/10/27 06:27:32;;;;;;;37.78;19.37;;;;;;;9.41;98.17;100042.61;1721965;81;21018;-46
2022/10/27 06:29:59;;;;;;;32.67;19.23;;;;;;;9.44;97.97;100041.19;1718581;82;21031;-45
2022/10/27 06:32:25;;;;;;;29.97;18.73;;;;;;;9.45;97.76;100050.76;1724730;82;21124;-45
2022/10/27 06:34:52;;;;;;;31.67;19.17;;;;;;;9.47;97.68;100058.11;1720789;82;21508;-44
2022/10/27 06:37:19;;;;;;;33.33;18.93;;;;;;;9.47;97.40;100058.11;1727933;81;21093;-47
2022/10/27 06:39:46;;;;;;;33.60;18.27;;;;;;;9.48;97.39;100066.84;1705267;81;21636;-44
2022/10/27 06:42:12;;;;;;;33.92;18.65;;;;;;;9.50;97.21;100065.88;1727136;82;21018;-43
2022/10/27 06:44:39;;;;;;;34.10;18.83;;;;;;;9.52;97.27;100073.24;1736213;81;21069;-46
2022/10/27 06:47:06;;;;;;;37.07;18.83;;;;;;;9.54;97.16;100075.34;1735853;81;21024;-44
2022/10/27 06:49:32;;;;;;;39.33;19.53;;;;;;;9.54;97.10;100074.50;1731313;81;21005;-44
2022/10/27 06:51:59;;;;;;;37.77;20.10;;;;;;;9.57;97.11;100076.55;1734202;81;21872;-45
2022/10/27 06:54:26;;;;;;;45.33;21.20;;;;;;;9.59;96.87;100074.72;1730488;82;21020;-47
2022/10/27 06:56:53;;;;;;;43.50;21.70;;;;;;;9.63;96.76;100079.39;1728063;82;21000;-45
2022/10/27 06:59:19;;;;;;;44.50;22.83;;;;;;;9.67;96.70;100082.75;1721050;82;21503;-44
2022/10/27 07:01:46;;;;;;;48.40;21.63;;;;;;;9.69;96.61;100086.17;1724182;81;20994;-45
2022/10/27 07:04:13;;;;;;;38.57;21.53;;;;;;;9.73;96.62;100083.81;1736886;81;21152;-47
2022/10/27 07:06:40;;;;;;;41.25;21.25;;;;;;;9.77;96.49;100090.69;1737946;81;21015;-44
2022/10/27 07:09:07;;;;;;;47.70;20.92;;;;;;;9.83;96.33;100085.64;1720252;82;21077;-45
2022/10/27 07:11:33;;;;;;;35.95;20.57;;;;;;;9.88;96.30;100084.55;1723716;82;21101;-43
2022/10/27 07:14:00;;;;;;;38.60;20.13;;;;;;;9.90;96.06;100091.91;1721563;82;20995;-44
2022/10/27 07:16:27;;;;;;;42.88;19.95;;;;;;;9.94;96.01;100088.23;1722618;81;21011;-44
2022/10/27 07:18:54;;;;;;;36.60;19.20;;;;;;;9.99;95.98;100088.91;1722321;81;21001;-46
2022/10/27 07:21:20;;;;;;;38.20;20.17;;;;;;;10.06;96.01;100093.91;1721943;81;21030;-47
2022/10/27 07:23:47;;;;;;;32.63;18.20;;;;;;;10.10;95.82;100095.52;1724190;81;21058;-43
2022/10/27 07:26:14;;;;;;;39.53;18.73;;;;;;;10.16;95.90;100095.25;1729105;82;21495;-47
2022/10/27 07:28:40;;;;;;;31.77;18.50;;;;;;;10.22;95.80;100101.56;1733081;81;21003;-44
2022/10/27 07:31:07;;;;;;;32.83;18.90;;;;;;;10.28;95.62;100105.27;1733840;81;21047;-45
2022/10/27 07:33:35;;;;;;;30.13;19.00;;;;;;;10.29;95.29;100112.69;1719674;81;21003;-44
2022/10/27 07:36:01;;;;;;;;;;;;;;;10.32;95.19;100111.29;1727916;81;21022;-45
2022/10/27 07:38:28;;;;;;;41.92;19.80;;;;;;;10.31;95.23;100122.24;1721880;82;20189;-46
2022/10/27 07:40:55;;;;;;;33.05;17.90;;;;;;;10.32;95.23;100129.23;1717112;82;20995;-44
2022/10/27 07:43:22;;;;;;;32.73;19.12;;;;;;;10.33;95.12;100124.38;1718978;82;21146;-47
2022/10/27 07:45:49;;;;;;;32.67;18.73;;;;;;;10.35;95.13;100125.17;1735944;82;21613;-44
2022/10/27 07:48:16;;;;;;;37.43;19.23;;;;;;;10.36;95.17;100128.17;1723806;82;21003;-44
2022/10/27 07:50:44;;;;;;;34.58;18.15;;;;;;;10.40;95.24;100137.27;1738079;81;21039;-44
2022/10/27 07:53:10;;;;;;;35.33;18.20;;;;;;;10.42;95.20;100130.16;1728699;82;21012;-45
2022/10/27 07:55:37;;;;;;;48.55;18.82;;;;;;;10.43;95.45;100135.83;1716665;81;21018;-44
2022/10/27 07:58:09;;;;;;;36.95;20.10;;;;;;;10.49;95.45;100131.63;1718088;82;21463;-44
2022/10/27 08:00:41;;;;;;;30.70;18.27;;;;;;;10.54;95.50;100133.61;1719854;81;21563;-45
2022/10/27 08:03:14;;;;;;;28.38;18.32;;;;;;;10.58;95.40;100139.13;1733567;81;21065;-43
2022/10/27 08:05:41;;;;;;;30.08;17.80;;;;;;;10.62;95.47;100135.44;1724637;81;21041;-44
2022/10/27 08:08:08;;;;;;;30.35;17.35;;;;;;;10.67;95.55;100140.05;1739010;82;21031;-47
2022/10/27 08:10:38;;;;;;;41.55;19.40;;;;;;;10.72;95.43;100142.03;1728954;81;21059;-45
2022/10/27 08:13:06;;;;;;;30.57;16.82;;;;;;;10.80;95.43;100143.02;1713727;82;21015;-44
2022/10/27 08:15:34;;;;;;;29.18;17.12;;;;;;;10.88;95.38;100142.71;1728269;80;21540;-46
2022/10/27 08:18:02;;;;;;;31.68;17.27;;;;;;;11.01;95.27;100146.52;1693933;83;21071;-47
2022/10/27 08:20:33;;;;;;;30.48;16.62;;;;;;;11.13;95.29;100143.35;1699458;83;21539;-46
2022/10/27 08:23:04;;;;;;;28.30;15.85;;;;;;;11.25;94.96;100146.36;1723563;82;21007;-45
2022/10/27 08:25:31;;;;;;;32.55;16.80;;;;;;;11.44;94.83;100148.57;1727051;82;21053;-46
2022/10/27 08:27:58;;;;;;;30.92;15.60;;;;;;;11.73;93.98;100143.72;1725529;82;21002;-44
2022/10/27 08:30:28;;;;;;;31.87;15.88;;;;;;;11.99;93.08;100145.63;1727462;82;21007;-46
2022/10/27 08:33:00;;;;;;;25.90;14.93;;;;;;;12.24;93.02;100148.83;1731356;80;21007;-45
2022/10/27 08:35:30;;;;;;;25.35;14.38;;;;;;;12.48;91.89;100148.08;1730540;81;21522;-45
2022/10/27 08:38:01;;;;;;;28.52;14.73;;;;;;;12.68;91.00;100156.32;1740317;81;21653;-45
2022/10/27 08:40:43;;;;;;;24.92;13.35;;;;;;;13.08;90.09;100154.76;1733723;81;21114;-43
2022/10/27 08:43:37;;;;;;;24.30;12.98;;;;;;;13.54;88.69;100154.14;1727406;82;21461;-44
2022/10/27 08:46:09;;;;;;;27.40;13.72;;;;;;;13.89;85.72;100152.20;1726836;81;21076;-44
2022/10/27 08:48:37;;;;;;;18.25;13.10;;;;;;;14.28;86.31;100147.41;1721400;82;21061;-45
2022/10/27 08:51:09;;;;;;;20.85;12.50;;;;;;;14.62;83.67;100148.99;1733255;81;21042;-45
2022/10/27 08:53:37;;;;;;;27.32;13.13;;;;;;;14.97;82.08;100155.31;1724795;82;21050;-47
2022/10/27 08:56:09;;;;;;;26.52;12.15;;;;;;;15.40;80.96;100146.58;1723637;81;21551;-45
2022/10/27 08:58:42;;;;;;;26.73;12.45;;;;;;;15.82;82.12;100146.19;1723920;81;21014;-46
2022/10/27 09:01:32;;;;;;;21.80;11.40;;;;;;;15.94;79.83;100144.09;1730371;81;21650;-45
2022/10/27 09:04:10;;;;;;;20.45;11.25;;;;;;;15.80;79.39;100137.00;1730222;80;20995;-44
2022/10/27 09:07:12;;;;;;;28.12;12.07;;;;;;;15.58;79.37;100140.12;1725129;82;21057;-44
2022/10/27 09:09:53;;;;;;;21.73;12.18;;;;;;;15.37;78.60;100144.95;1715159;82;21009;-44
2022/10/27 09:12:41;;;;;;;19.67;11.95;;;;;;;15.08;78.46;100143.63;1705591;83;21055;-46
2022/10/27 09:15:33;;;;;;;17.48;11.73;;;;;;;14.94;79.33;100145.77;1717503;82;21073;-45
2022/10/27 09:18:20;;;;;;;26.40;12.58;;;;;;;14.78;80.10;100139.20;1715434;82;21507;-46
2022/10/27 09:20:54;;;;;;;18.45;12.45;;;;;;;14.72;81.15;100151.97;1700802;83;21572;-46
2022/10/27 09:23:41;;;;;;;23.27;12.95;;;;;;;14.62;81.51;100153.44;1713374;82;21027;-44
2022/10/27 09:26:09;;;;;;;24.35;12.65;;;;;;;14.53;82.07;100152.14;1724385;81;21047;-43
2022/10/27 09:28:45;;;;;;;23.65;13.25;;;;;;;14.45;82.34;100157.89;1722115;82;21023;-45
2022/10/27 09:31:16;;;;;;;29.30;13.38;;;;;;;14.39;82.59;100164.87;1704523;82;21054;-45
2022/10/27 09:34:12;;;;;;;21.80;12.95;;;;;;;14.34;83.10;100162.95;1705452;83;21055;-45
2022/10/27 09:36:39;;;;;;;22.15;12.73;;;;;;;14.33;83.00;100167.84;1717058;81;20998;-44
2022/10/27 09:39:08;;;;;;;19.17;12.53;;;;;;;14.23;83.17;100165.36;1712670;82;21067;-44
2022/10/27 09:41:35;;;;;;;17.32;12.85;;;;;;;14.18;83.20;100163.80;1721231;81;21014;-45
2022/10/27 09:44:04;;;;;;;21.00;12.33;;;;;;;14.17;83.42;100167.41;1724150;81;21019;-44
2022/10/27 09:46:31;;;;;;;22.00;13.08;;;;;;;14.16;83.79;100165.69;1719889;81;21027;-44
2022/10/27 09:49:03;;;;;;;22.62;13.00;;;;;;;14.15;84.20;100163.13;1700331;82;21064;-44
2022/10/27 09:51:44;;;;;;;21.77;12.98;;;;;;;14.11;84.09;100169.53;1698874;83;21516;-46
2022/10/27 09:54:33;;;;;;;28.47;13.45;;;;;;;14.14;84.39;100170.21;1697293;83;20983;-44
2022/10/27 09:57:07;;;;;;;21.37;13.05;;;;;;;14.15;84.82;100167.96;1704463;80;21021;-44
2022/10/27 09:59:36;;;;;;;24.43;13.90;;;;;;;14.19;84.38;100165.52;1717806;82;21660;-44
2022/10/27 10:02:05;;;;;;;23.65;12.93;;;;;;;14.21;84.65;100166.28;1702394;83;21030;-44
2022/10/27 10:04:38;;;;;;;27.52;13.40;;;;;;;14.24;84.91;100160.43;1722157;79;21069;-43
2022/10/27 10:07:06;;;;;;;19.30;12.65;;;;;;;14.30;84.80;100157.45;1709044;81;21021;-45
2022/10/27 10:09:38;;;;;;;34.55;13.03;;;;;;;14.30;84.76;100168.04;1715998;82;21004;-44
2022/10/27 10:12:25;;;;;;;23.42;13.10;;;;;;;14.32;84.78;100160.86;1701648;82;21674;-44
2022/10/27 10:15:14;;;;;;;27.40;12.88;;;;;;;14.37;84.80;100171.56;1721764;81;21026;-45
2022/10/27 10:17:51;;;;;;;24.63;12.75;;;;;;;14.41;84.96;100164.30;1717947;81;21061;-44
2022/10/27 10:20:39;;;;;;;21.35;12.13;;;;;;;14.47;84.96;100172.36;1709389;81;21072;-43
2022/10/27 10:23:09;;;;;;;;;;;;;;;14.49;84.83;100164.70;1740990;81;21562;-44
2022/10/27 10:25:46;;;;;;;17.15;11.28;;;;;;;14.52;84.89;100168.50;1718348;80;20109;-45
2022/10/27 10:28:13;;;;;;;25.02;13.28;;;;;;;14.58;85.01;100168.17;1709154;82;21044;-44
2022/10/27 10:30:40;;;;;;;22.37;12.93;;;;;;;14.62;84.81;100169.33;1725204;81;21069;-45
2022/10/27 10:33:13;;;;;;;22.50;13.00;;;;;;;14.68;84.78;100173.80;1717641;81;21048;-47
2022/10/27 10:35:47;;;;;;;26.27;11.90;;;;;;;14.70;84.81;100171.91;1729689;80;21059;-43
2022/10/27 10:38:34;;;;;;;26.35;12.05;;;;;;;14.72;84.49;100166.53;1713050;81;21034;-44
2022/10/27 10:41:11;;;;;;;26.95;12.95;;;;;;;14.77;84.73;100168.41;1755019;81;21514;-44
2022/10/27 10:43:39;;;;;;;23.77;11.90;;;;;;;14.83;84.58;100172.05;1737800;81;21086;-45
2022/10/27 10:46:20;;;;;;;21.40;12.05;;;;;;;14.89;84.75;100172.99;1704876;82;21003;-44
2022/10/27 10:48:54;;;;;;;21.15;13.50;;;;;;;14.94;84.60;100170.94;1700178;82;20983;-45
2022/10/27 10:51:35;;;;;;;24.47;12.47;;;;;;;15.01;84.65;100170.55;1723516;82;21062;-44
2022/10/27 10:54:07;;;;;;;20.30;11.97;;;;;;;15.08;84.68;100171.89;1701291;81;20994;-44
2022/10/27 10:56:36;;;;;;;25.52;12.10;;;;;;;15.10;84.33;100176.66;1744917;81;20990;-45
2022/10/27 10:59:13;;;;;;;21.35;11.08;;;;;;;15.12;84.35;100171.63;1705760;81;21035;-45
2022/10/27 11:01:55;;;;;;;;;;;;;;;15.16;84.13;100173.14;1708459;83;21515;-45
2022/10/27 11:04:29;;;;;;;18.12;11.05;;;;;;;15.18;83.31;100169.08;1739329;81;20150;-47
2022/10/27 11:07:20;;;;;;;20.37;10.75;;;;;;;15.30;84.09;100167.02;1707439;81;22257;-44
2022/10/27 11:09:58;;;;;;;18.92;10.82;;;;;;;15.37;84.01;100168.80;1767831;80;21018;-45
2022/10/27 11:12:33;;;;;;;20.35;10.78;;;;;;;15.46;83.97;100172.24;1766786;80;21014;-44
2022/10/27 11:15:08;;;;;;;20.62;11.97;;;;;;;15.53;83.25;100167.39;1759314;80;21578;-44
2022/10/27 11:17:36;;;;;;;22.77;10.93;;;;;;;15.61;83.42;100164.26;1765465;80;20971;-44
2022/10/27 11:20:06;;;;;;;18.02;10.25;;;;;;;15.65;82.91;100162.66;1703313;83;21611;-44
2022/10/27 11:22:34;;;;;;;14.15;9.55;;;;;;;15.69;82.81;100162.84;1699366;81;21034;-44
2022/10/27 11:25:15;;;;;;;17.62;10.75;;;;;;;15.74;82.36;100166.57;1686802;82;21047;-45
2022/10/27 11:27:54;;;;;;;15.03;10.13;;;;;;;15.81;82.72;100157.28;1714296;83;21454;-44
2022/10/27 11:30:26;;;;;;;16.75;10.38;;;;;;;15.91;82.63;100156.22;1694308;83;21063;-44
2022/10/27 11:33:05;;;;;;;17.00;9.88;;;;;;;15.94;82.24;100158.68;1693009;83;21070;-44
2022/10/27 11:36:04;;;;;;;17.77;10.00;;;;;;;15.98;81.89;100157.52;1740226;80;21116;-43
2022/10/27 11:38:54;;;;;;;15.20;9.83;;;;;;;16.05;81.95;100163.30;1706294;82;21503;-44